sensor_id;sensor_type;location;lat;lon;timestamp;P1;durP1;ratioP1;P2;durP2;ratioP2
11504;SDS011;5809;53.262;10.408;2023-05-10T00:00:11;6.82;;;3.60;;
11504;SDS011;5809;53.262;10.408;2023-05-10T00:02:39;7.25;;;3.60;;
11504;SDS011;5809;53.262;10.408;2023-05-10T00:05:06;4.90;;;3.45;;
11504;SDS011;5809;53.262;10.408;2023-05-10T00:07:33;5.13;;;3.15;;
11504;SDS011;5809;53.262;10.408;2023-05-10T00:10:00;6.10;;;3.40;;
11504;SDS011;5809;53.262;10.408;2023-05-10T00:12:27;6.40;;;3.40;;
11504;SDS011;5809;53.262;10.408;2023-05-10T00:14:54;3.80;;;3.40;;
11504;SDS011;5809;53.262;10.408;2023-05-10T00:17:22;4.68;;;3.63;;
11504;SDS011;5809;53.262;10.408;2023-05-10T00:19:49;4.65;;;3.70;;
11504;SDS011;5809;53.262;10.408;2023-05-10T00:22:16;7.22;;;3.42;;
11504;SDS011;5809;53.262;10.408;2023-05-10T00:24:43;5.68;;;3.70;;
11504;SDS011;5809;53.262;10.408;2023-05-10T00:27:10;4.18;;;3.70;;
11504;SDS011;5809;53.262;10.408;2023-05-10T00:29:37;4.07;;;3.50;;
11504;SDS011;5809;53.262;10.408;2023-05-10T00:32:04;5.95;;;3.92;;
11504;SDS011;5809;53.262;10.408;2023-05-10T00:34:32;7.70;;;3.88;;
11504;SDS011;5809;53.262;10.408;2023-05-10T00:36:59;5.55;;;3.60;;
11504;SDS011;5809;53.262;10.408;2023-05-10T00:39:26;6.60;;;3.80;;
11504;SDS011;5809;53.262;10.408;2023-05-10T00:41:53;8.30;;;3.85;;
11504;SDS011;5809;53.262;10.408;2023-05-10T00:44:20;8.20;;;3.20;;
11504;SDS011;5809;53.262;10.408;2023-05-10T00:46:47;3.85;;;3.35;;
11504;SDS011;5809;53.262;10.408;2023-05-10T00:49:15;5.25;;;4.00;;
11504;SDS011;5809;53.262;10.408;2023-05-10T00:51:43;4.55;;;3.63;;
11504;SDS011;5809;53.262;10.408;2023-05-10T00:54:11;6.93;;;3.83;;
11504;SDS011;5809;53.262;10.408;2023-05-10T00:56:40;4.03;;;3.50;;
11504;SDS011;5809;53.262;10.408;2023-05-10T00:59:09;7.13;;;3.78;;
11504;SDS011;5809;53.262;10.408;2023-05-10T01:01:36;4.78;;;3.65;;
11504;SDS011;5809;53.262;10.408;2023-05-10T01:04:04;8.60;;;3.60;;
11504;SDS011;5809;53.262;10.408;2023-05-10T01:06:30;5.15;;;3.40;;
11504;SDS011;5809;53.262;10.408;2023-05-10T01:08:59;4.15;;;3.45;;
11504;SDS011;5809;53.262;10.408;2023-05-10T01:11:26;6.28;;;3.65;;
11504;SDS011;5809;53.262;10.408;2023-05-10T01:13:54;5.88;;;3.67;;
11504;SDS011;5809;53.262;10.408;2023-05-10T01:16:23;4.57;;;3.92;;
11504;SDS011;5809;53.262;10.408;2023-05-10T01:18:50;6.43;;;3.53;;
11504;SDS011;5809;53.262;10.408;2023-05-10T01:21:22;5.43;;;3.92;;
11504;SDS011;5809;53.262;10.408;2023-05-10T01:24:09;4.03;;;3.63;;
11504;SDS011;5809;53.262;10.408;2023-05-10T01:33:02;5.72;;;3.50;;
11504;SDS011;5809;53.262;10.408;2023-05-10T01:35:37;6.75;;;3.72;;
11504;SDS011;5809;53.262;10.408;2023-05-10T01:38:09;5.15;;;3.50;;
11504;SDS011;5809;53.262;10.408;2023-05-10T01:40:46;7.10;;;3.55;;
11504;SDS011;5809;53.262;10.408;2023-05-10T01:43:19;4.32;;;3.47;;
11504;SDS011;5809;53.262;10.408;2023-05-10T01:45:54;5.13;;;3.80;;
11504;SDS011;5809;53.262;10.408;2023-05-10T01:48:30;7.00;;;3.50;;
11504;SDS011;5809;53.262;10.408;2023-05-10T01:50:58;4.63;;;3.72;;
11504;SDS011;5809;53.262;10.408;2023-05-10T01:53:25;5.90;;;3.78;;
11504;SDS011;5809;53.262;10.408;2023-05-10T01:55:53;5.50;;;4.20;;
11504;SDS011;5809;53.262;10.408;2023-05-10T01:58:23;5.45;;;4.05;;
11504;SDS011;5809;53.262;10.408;2023-05-10T02:00:53;4.10;;;3.70;;
11504;SDS011;5809;53.262;10.408;2023-05-10T02:03:22;6.88;;;3.58;;
11504;SDS011;5809;53.262;10.408;2023-05-10T02:05:52;5.60;;;3.40;;
11504;SDS011;5809;53.262;10.408;2023-05-10T02:08:21;5.10;;;3.80;;
11504;SDS011;5809;53.262;10.408;2023-05-10T02:10:50;5.22;;;3.88;;
11504;SDS011;5809;53.262;10.408;2023-05-10T02:13:18;4.53;;;3.83;;
11504;SDS011;5809;53.262;10.408;2023-05-10T02:15:46;7.32;;;3.72;;
11504;SDS011;5809;53.262;10.408;2023-05-10T02:18:15;6.85;;;3.70;;
11504;SDS011;5809;53.262;10.408;2023-05-10T02:20:43;5.78;;;3.53;;
11504;SDS011;5809;53.262;10.408;2023-05-10T02:23:12;8.07;;;3.85;;
11504;SDS011;5809;53.262;10.408;2023-05-10T02:25:40;8.27;;;3.80;;
11504;SDS011;5809;53.262;10.408;2023-05-10T02:28:09;7.75;;;3.97;;
11504;SDS011;5809;53.262;10.408;2023-05-10T02:30:37;5.93;;;3.60;;
11504;SDS011;5809;53.262;10.408;2023-05-10T02:33:05;6.22;;;3.67;;
11504;SDS011;5809;53.262;10.408;2023-05-10T02:35:33;6.30;;;3.90;;
11504;SDS011;5809;53.262;10.408;2023-05-10T02:38:01;8.60;;;3.80;;
11504;SDS011;5809;53.262;10.408;2023-05-10T02:40:30;4.25;;;3.60;;
11504;SDS011;5809;53.262;10.408;2023-05-10T02:42:58;7.20;;;3.88;;
11504;SDS011;5809;53.262;10.408;2023-05-10T02:45:29;5.30;;;3.72;;
11504;SDS011;5809;53.262;10.408;2023-05-10T02:47:58;4.38;;;3.88;;
11504;SDS011;5809;53.262;10.408;2023-05-10T02:50:27;8.55;;;3.70;;
11504;SDS011;5809;53.262;10.408;2023-05-10T02:53:00;4.30;;;3.70;;
11504;SDS011;5809;53.262;10.408;2023-05-10T02:55:33;4.32;;;3.50;;
11504;SDS011;5809;53.262;10.408;2023-05-10T02:58:03;6.20;;;4.13;;
11504;SDS011;5809;53.262;10.408;2023-05-10T03:00:31;5.38;;;3.72;;
11504;SDS011;5809;53.262;10.408;2023-05-10T03:02:57;4.63;;;4.00;;
11504;SDS011;5809;53.262;10.408;2023-05-10T03:05:25;5.97;;;3.90;;
11504;SDS011;5809;53.262;10.408;2023-05-10T03:07:52;5.53;;;4.13;;
11504;SDS011;5809;53.262;10.408;2023-05-10T03:10:19;5.30;;;4.03;;
11504;SDS011;5809;53.262;10.408;2023-05-10T03:12:56;8.57;;;3.92;;
11504;SDS011;5809;53.262;10.408;2023-05-10T03:15:36;6.15;;;3.80;;
11504;SDS011;5809;53.262;10.408;2023-05-10T03:18:15;5.13;;;3.97;;
11504;SDS011;5809;53.262;10.408;2023-05-10T03:20:46;5.20;;;3.95;;
11504;SDS011;5809;53.262;10.408;2023-05-10T03:23:18;5.87;;;3.93;;
11504;SDS011;5809;53.262;10.408;2023-05-10T03:25:49;7.13;;;4.03;;
11504;SDS011;5809;53.262;10.408;2023-05-10T03:28:18;6.03;;;4.10;;
11504;SDS011;5809;53.262;10.408;2023-05-10T03:30:46;8.65;;;4.68;;
11504;SDS011;5809;53.262;10.408;2023-05-10T03:33:13;5.80;;;3.92;;
11504;SDS011;5809;53.262;10.408;2023-05-10T03:35:40;6.10;;;4.10;;
11504;SDS011;5809;53.262;10.408;2023-05-10T03:38:09;4.63;;;3.90;;
11504;SDS011;5809;53.262;10.408;2023-05-10T03:40:36;5.22;;;4.13;;
11504;SDS011;5809;53.262;10.408;2023-05-10T03:43:03;7.35;;;3.80;;
11504;SDS011;5809;53.262;10.408;2023-05-10T03:45:31;7.15;;;4.00;;
11504;SDS011;5809;53.262;10.408;2023-05-10T03:47:58;9.23;;;4.15;;
11504;SDS011;5809;53.262;10.408;2023-05-10T03:50:25;4.70;;;4.00;;
11504;SDS011;5809;53.262;10.408;2023-05-10T03:52:52;5.07;;;4.05;;
11504;SDS011;5809;53.262;10.408;2023-05-10T03:55:19;7.50;;;4.20;;
11504;SDS011;5809;53.262;10.408;2023-05-10T03:57:47;6.47;;;4.03;;
11504;SDS011;5809;53.262;10.408;2023-05-10T04:00:14;6.28;;;3.95;;
11504;SDS011;5809;53.262;10.408;2023-05-10T04:02:43;4.70;;;3.90;;
11504;SDS011;5809;53.262;10.408;2023-05-10T04:05:10;4.55;;;3.95;;
11504;SDS011;5809;53.262;10.408;2023-05-10T04:07:37;5.22;;;4.10;;
11504;SDS011;5809;53.262;10.408;2023-05-10T04:10:04;6.00;;;3.85;;
11504;SDS011;5809;53.262;10.408;2023-05-10T04:12:32;7.15;;;4.55;;
11504;SDS011;5809;53.262;10.408;2023-05-10T04:14:59;10.80;;;4.40;;
11504;SDS011;5809;53.262;10.408;2023-05-10T04:17:26;6.00;;;4.25;;
11504;SDS011;5809;53.262;10.408;2023-05-10T04:19:54;10.60;;;3.95;;
11504;SDS011;5809;53.262;10.408;2023-05-10T04:22:22;5.82;;;4.18;;
11504;SDS011;5809;53.262;10.408;2023-05-10T04:24:49;4.57;;;3.85;;
11504;SDS011;5809;53.262;10.408;2023-05-10T04:27:16;5.25;;;4.07;;
11504;SDS011;5809;53.262;10.408;2023-05-10T04:29:43;4.20;;;3.70;;
11504;SDS011;5809;53.262;10.408;2023-05-10T04:32:10;6.15;;;4.15;;
11504;SDS011;5809;53.262;10.408;2023-05-10T04:34:37;7.43;;;4.57;;
11504;SDS011;5809;53.262;10.408;2023-05-10T04:37:05;5.82;;;3.90;;
11504;SDS011;5809;53.262;10.408;2023-05-10T04:39:32;4.68;;;3.88;;
11504;SDS011;5809;53.262;10.408;2023-05-10T04:42:00;4.30;;;3.90;;
11504;SDS011;5809;53.262;10.408;2023-05-10T04:44:27;4.22;;;3.75;;
11504;SDS011;5809;53.262;10.408;2023-05-10T04:46:54;5.18;;;4.35;;
11504;SDS011;5809;53.262;10.408;2023-05-10T04:49:21;9.40;;;3.97;;
11504;SDS011;5809;53.262;10.408;2023-05-10T04:51:48;4.78;;;4.28;;
11504;SDS011;5809;53.262;10.408;2023-05-10T04:54:16;4.32;;;3.92;;
11504;SDS011;5809;53.262;10.408;2023-05-10T04:56:43;5.32;;;3.78;;
11504;SDS011;5809;53.262;10.408;2023-05-10T04:59:10;8.52;;;3.60;;
11504;SDS011;5809;53.262;10.408;2023-05-10T05:01:37;5.32;;;4.30;;
11504;SDS011;5809;53.262;10.408;2023-05-10T05:04:04;5.65;;;4.00;;
11504;SDS011;5809;53.262;10.408;2023-05-10T05:06:31;7.75;;;3.90;;
11504;SDS011;5809;53.262;10.408;2023-05-10T05:08:58;6.25;;;4.40;;
11504;SDS011;5809;53.262;10.408;2023-05-10T05:11:27;4.43;;;4.03;;
11504;SDS011;5809;53.262;10.408;2023-05-10T05:13:54;4.30;;;3.53;;
11504;SDS011;5809;53.262;10.408;2023-05-10T05:16:20;4.80;;;3.80;;
11504;SDS011;5809;53.262;10.408;2023-05-10T05:18:47;4.18;;;3.78;;
11504;SDS011;5809;53.262;10.408;2023-05-10T05:21:14;6.60;;;4.10;;
11504;SDS011;5809;53.262;10.408;2023-05-10T05:23:42;5.68;;;3.85;;
11504;SDS011;5809;53.262;10.408;2023-05-10T05:26:09;5.57;;;4.10;;
11504;SDS011;5809;53.262;10.408;2023-05-10T05:28:37;4.97;;;3.55;;
11504;SDS011;5809;53.262;10.408;2023-05-10T05:31:05;5.68;;;4.10;;
11504;SDS011;5809;53.262;10.408;2023-05-10T05:33:32;6.85;;;4.13;;
11504;SDS011;5809;53.262;10.408;2023-05-10T05:36:00;4.88;;;3.95;;
11504;SDS011;5809;53.262;10.408;2023-05-10T05:38:27;4.60;;;4.15;;
11504;SDS011;5809;53.262;10.408;2023-05-10T05:40:54;7.20;;;4.00;;
11504;SDS011;5809;53.262;10.408;2023-05-10T05:43:21;8.60;;;4.20;;
11504;SDS011;5809;53.262;10.408;2023-05-10T05:45:49;4.63;;;4.07;;
11504;SDS011;5809;53.262;10.408;2023-05-10T05:48:17;6.07;;;4.00;;
11504;SDS011;5809;53.262;10.408;2023-05-10T05:50:45;5.70;;;3.92;;
11504;SDS011;5809;53.262;10.408;2023-05-10T05:53:12;5.65;;;3.90;;
11504;SDS011;5809;53.262;10.408;2023-05-10T05:55:39;7.30;;;3.92;;
11504;SDS011;5809;53.262;10.408;2023-05-10T05:58:06;6.93;;;3.90;;
11504;SDS011;5809;53.262;10.408;2023-05-10T06:00:33;6.95;;;4.50;;
11504;SDS011;5809;53.262;10.408;2023-05-10T06:03:02;4.63;;;3.70;;
11504;SDS011;5809;53.262;10.408;2023-05-10T06:05:29;6.28;;;3.83;;
11504;SDS011;5809;53.262;10.408;2023-05-10T06:07:56;5.97;;;4.15;;
11504;SDS011;5809;53.262;10.408;2023-05-10T06:10:25;5.18;;;4.00;;
11504;SDS011;5809;53.262;10.408;2023-05-10T06:12:52;4.28;;;3.72;;
11504;SDS011;5809;53.262;10.408;2023-05-10T06:15:19;5.40;;;3.80;;
11504;SDS011;5809;53.262;10.408;2023-05-10T06:17:46;4.78;;;4.13;;
11504;SDS011;5809;53.262;10.408;2023-05-10T06:20:15;7.60;;;4.00;;
11504;SDS011;5809;53.262;10.408;2023-05-10T06:22:42;5.32;;;3.58;;
11504;SDS011;5809;53.262;10.408;2023-05-10T06:25:09;6.63;;;4.20;;
11504;SDS011;5809;53.262;10.408;2023-05-10T06:27:37;5.13;;;4.20;;
11504;SDS011;5809;53.262;10.408;2023-05-10T06:30:05;4.13;;;3.55;;
11504;SDS011;5809;53.262;10.408;2023-05-10T06:32:33;6.32;;;3.85;;
11504;SDS011;5809;53.262;10.408;2023-05-10T06:35:00;4.65;;;3.90;;
11504;SDS011;5809;53.262;10.408;2023-05-10T06:37:28;5.07;;;3.95;;
11504;SDS011;5809;53.262;10.408;2023-05-10T06:39:55;5.43;;;3.85;;
11504;SDS011;5809;53.262;10.408;2023-05-10T06:42:22;5.35;;;4.35;;
11504;SDS011;5809;53.262;10.408;2023-05-10T06:44:50;9.13;;;4.40;;
11504;SDS011;5809;53.262;10.408;2023-05-10T06:47:17;5.00;;;4.20;;
11504;SDS011;5809;53.262;10.408;2023-05-10T06:49:44;4.35;;;3.75;;
11504;SDS011;5809;53.262;10.408;2023-05-10T06:52:11;5.40;;;3.70;;
11504;SDS011;5809;53.262;10.408;2023-05-10T06:54:39;5.93;;;3.85;;
11504;SDS011;5809;53.262;10.408;2023-05-10T06:57:06;4.65;;;3.88;;
11504;SDS011;5809;53.262;10.408;2023-05-10T06:59:32;6.40;;;3.90;;
11504;SDS011;5809;53.262;10.408;2023-05-10T07:01:59;4.38;;;3.95;;
11504;SDS011;5809;53.262;10.408;2023-05-10T07:04:26;5.32;;;3.90;;
11504;SDS011;5809;53.262;10.408;2023-05-10T07:06:53;8.35;;;3.72;;
11504;SDS011;5809;53.262;10.408;2023-05-10T07:09:20;8.23;;;4.10;;
11504;SDS011;5809;53.262;10.408;2023-05-10T07:11:48;4.28;;;3.88;;
11504;SDS011;5809;53.262;10.408;2023-05-10T07:14:15;6.60;;;4.05;;
11504;SDS011;5809;53.262;10.408;2023-05-10T07:16:42;5.38;;;3.75;;
11504;SDS011;5809;53.262;10.408;2023-05-10T07:19:09;4.40;;;3.72;;
11504;SDS011;5809;53.262;10.408;2023-05-10T07:21:36;5.10;;;3.90;;
11504;SDS011;5809;53.262;10.408;2023-05-10T07:24:05;5.68;;;4.10;;
11504;SDS011;5809;53.262;10.408;2023-05-10T07:26:32;5.90;;;4.00;;
11504;SDS011;5809;53.262;10.408;2023-05-10T07:29:00;6.53;;;4.00;;
11504;SDS011;5809;53.262;10.408;2023-05-10T07:31:27;6.93;;;4.00;;
11504;SDS011;5809;53.262;10.408;2023-05-10T07:33:54;4.00;;;3.60;;
11504;SDS011;5809;53.262;10.408;2023-05-10T07:36:21;11.57;;;3.65;;
11504;SDS011;5809;53.262;10.408;2023-05-10T07:38:48;5.53;;;4.00;;
11504;SDS011;5809;53.262;10.408;2023-05-10T07:41:15;6.45;;;3.90;;
11504;SDS011;5809;53.262;10.408;2023-05-10T07:43:42;4.07;;;3.67;;
11504;SDS011;5809;53.262;10.408;2023-05-10T07:46:10;5.65;;;3.88;;
11504;SDS011;5809;53.262;10.408;2023-05-10T07:48:37;5.88;;;3.83;;
11504;SDS011;5809;53.262;10.408;2023-05-10T07:51:04;7.38;;;3.78;;
11504;SDS011;5809;53.262;10.408;2023-05-10T07:53:34;4.53;;;3.72;;
11504;SDS011;5809;53.262;10.408;2023-05-10T07:56:19;4.10;;;3.70;;
11504;SDS011;5809;53.262;10.408;2023-05-10T07:58:47;5.60;;;3.65;;
11504;SDS011;5809;53.262;10.408;2023-05-10T08:01:16;9.15;;;4.50;;
11504;SDS011;5809;53.262;10.408;2023-05-10T08:03:43;4.40;;;3.67;;
11504;SDS011;5809;53.262;10.408;2023-05-10T08:06:10;6.72;;;4.20;;
11504;SDS011;5809;53.262;10.408;2023-05-10T08:08:37;6.65;;;3.63;;
11504;SDS011;5809;53.262;10.408;2023-05-10T08:11:04;6.90;;;4.32;;
11504;SDS011;5809;53.262;10.408;2023-05-10T08:13:31;8.93;;;4.43;;
11504;SDS011;5809;53.262;10.408;2023-05-10T08:15:57;4.32;;;3.92;;
11504;SDS011;5809;53.262;10.408;2023-05-10T08:18:26;5.70;;;3.60;;
11504;SDS011;5809;53.262;10.408;2023-05-10T08:20:53;5.78;;;3.75;;
11504;SDS011;5809;53.262;10.408;2023-05-10T08:23:20;5.90;;;3.97;;
11504;SDS011;5809;53.262;10.408;2023-05-10T08:25:47;6.05;;;3.90;;
11504;SDS011;5809;53.262;10.408;2023-05-10T08:28:14;4.78;;;4.25;;
11504;SDS011;5809;53.262;10.408;2023-05-10T08:30:41;7.00;;;4.20;;
11504;SDS011;5809;53.262;10.408;2023-05-10T08:33:07;7.82;;;4.10;;
11504;SDS011;5809;53.262;10.408;2023-05-10T08:35:36;5.70;;;4.15;;
11504;SDS011;5809;53.262;10.408;2023-05-10T08:38:03;4.68;;;4.22;;
11504;SDS011;5809;53.262;10.408;2023-05-10T08:40:29;5.10;;;4.40;;
11504;SDS011;5809;53.262;10.408;2023-05-10T08:42:58;6.15;;;4.30;;
11504;SDS011;5809;53.262;10.408;2023-05-10T08:45:31;5.93;;;4.07;;
11504;SDS011;5809;53.262;10.408;2023-05-10T08:47:59;4.68;;;4.18;;
11504;SDS011;5809;53.262;10.408;2023-05-10T08:50:28;7.18;;;4.43;;
11504;SDS011;5809;53.262;10.408;2023-05-10T08:52:59;6.88;;;4.50;;
11504;SDS011;5809;53.262;10.408;2023-05-10T08:55:30;4.25;;;3.85;;
11504;SDS011;5809;53.262;10.408;2023-05-10T08:57:58;4.72;;;4.32;;
11504;SDS011;5809;53.262;10.408;2023-05-10T09:00:25;10.95;;;4.50;;
11504;SDS011;5809;53.262;10.408;2023-05-10T09:02:53;5.95;;;4.32;;
11504;SDS011;5809;53.262;10.408;2023-05-10T09:05:20;5.85;;;4.43;;
11504;SDS011;5809;53.262;10.408;2023-05-10T09:07:47;6.38;;;4.20;;
11504;SDS011;5809;53.262;10.408;2023-05-10T09:10:15;6.38;;;4.45;;
11504;SDS011;5809;53.262;10.408;2023-05-10T09:12:42;6.45;;;5.22;;
11504;SDS011;5809;53.262;10.408;2023-05-10T09:15:11;6.25;;;4.80;;
11504;SDS011;5809;53.262;10.408;2023-05-10T09:17:41;7.65;;;4.80;;
11504;SDS011;5809;53.262;10.408;2023-05-10T09:20:10;7.93;;;5.05;;
11504;SDS011;5809;53.262;10.408;2023-05-10T09:22:37;5.57;;;5.00;;
11504;SDS011;5809;53.262;10.408;2023-05-10T09:25:05;5.32;;;4.47;;
11504;SDS011;5809;53.262;10.408;2023-05-10T09:27:34;5.80;;;4.68;;
11504;SDS011;5809;53.262;10.408;2023-05-10T09:30:01;9.18;;;4.97;;
11504;SDS011;5809;53.262;10.408;2023-05-10T09:32:38;8.90;;;5.18;;
11504;SDS011;5809;53.262;10.408;2023-05-10T09:35:07;6.65;;;4.97;;
11504;SDS011;5809;53.262;10.408;2023-05-10T09:37:34;5.57;;;5.07;;
11504;SDS011;5809;53.262;10.408;2023-05-10T09:40:04;7.68;;;4.38;;
11504;SDS011;5809;53.262;10.408;2023-05-10T09:42:33;7.40;;;4.75;;
11504;SDS011;5809;53.262;10.408;2023-05-10T09:45:04;5.45;;;4.80;;
11504;SDS011;5809;53.262;10.408;2023-05-10T09:47:32;5.35;;;4.85;;
11504;SDS011;5809;53.262;10.408;2023-05-10T09:50:00;5.75;;;5.25;;
11504;SDS011;5809;53.262;10.408;2023-05-10T09:52:29;8.10;;;5.07;;
11504;SDS011;5809;53.262;10.408;2023-05-10T09:54:56;6.25;;;5.28;;
11504;SDS011;5809;53.262;10.408;2023-05-10T09:57:23;8.55;;;4.80;;
11504;SDS011;5809;53.262;10.408;2023-05-10T09:59:53;9.20;;;5.20;;
11504;SDS011;5809;53.262;10.408;2023-05-10T10:02:20;6.47;;;5.00;;
11504;SDS011;5809;53.262;10.408;2023-05-10T10:04:49;5.75;;;5.18;;
11504;SDS011;5809;53.262;10.408;2023-05-10T10:07:17;5.95;;;5.13;;
11504;SDS011;5809;53.262;10.408;2023-05-10T10:09:50;6.13;;;5.35;;
11504;SDS011;5809;53.262;10.408;2023-05-10T10:12:17;5.63;;;5.07;;
11504;SDS011;5809;53.262;10.408;2023-05-10T10:14:45;7.85;;;5.00;;
11504;SDS011;5809;53.262;10.408;2023-05-10T10:17:16;7.22;;;5.93;;
11504;SDS011;5809;53.262;10.408;2023-05-10T10:19:43;5.80;;;5.30;;
11504;SDS011;5809;53.262;10.408;2023-05-10T10:22:11;6.65;;;6.05;;
11504;SDS011;5809;53.262;10.408;2023-05-10T10:24:38;6.60;;;5.88;;
11504;SDS011;5809;53.262;10.408;2023-05-10T10:27:11;6.22;;;5.63;;
11504;SDS011;5809;53.262;10.408;2023-05-10T10:29:47;7.85;;;6.65;;
11504;SDS011;5809;53.262;10.408;2023-05-10T10:32:26;7.68;;;6.80;;
11504;SDS011;5809;53.262;10.408;2023-05-10T10:34:59;7.28;;;6.50;;
11504;SDS011;5809;53.262;10.408;2023-05-10T10:37:40;9.60;;;7.50;;
11504;SDS011;5809;53.262;10.408;2023-05-10T10:40:25;9.88;;;8.20;;
11504;SDS011;5809;53.262;10.408;2023-05-10T10:42:52;9.82;;;8.82;;
11504;SDS011;5809;53.262;10.408;2023-05-10T10:45:20;10.73;;;9.63;;
11504;SDS011;5809;53.262;10.408;2023-05-10T10:47:50;10.60;;;9.57;;
11504;SDS011;5809;53.262;10.408;2023-05-10T10:50:42;11.57;;;10.07;;
11504;SDS011;5809;53.262;10.408;2023-05-10T10:53:10;11.70;;;10.32;;
11504;SDS011;5809;53.262;10.408;2023-05-10T10:55:44;12.02;;;10.82;;
11504;SDS011;5809;53.262;10.408;2023-05-10T10:58:16;12.23;;;10.90;;
11504;SDS011;5809;53.262;10.408;2023-05-10T11:01:08;13.82;;;11.32;;
11504;SDS011;5809;53.262;10.408;2023-05-10T11:03:38;10.88;;;9.82;;
11504;SDS011;5809;53.262;10.408;2023-05-10T11:06:05;11.70;;;10.60;;
11504;SDS011;5809;53.262;10.408;2023-05-10T11:08:33;13.30;;;11.73;;
11504;SDS011;5809;53.262;10.408;2023-05-10T11:11:07;13.38;;;11.95;;
11504;SDS011;5809;53.262;10.408;2023-05-10T11:13:37;13.90;;;12.52;;
11504;SDS011;5809;53.262;10.408;2023-05-10T11:16:11;17.00;;;13.57;;
11504;SDS011;5809;53.262;10.408;2023-05-10T11:18:41;14.82;;;12.35;;
11504;SDS011;5809;53.262;10.408;2023-05-10T11:21:24;14.18;;;12.77;;
11504;SDS011;5809;53.262;10.408;2023-05-10T11:23:51;13.35;;;11.95;;
11504;SDS011;5809;53.262;10.408;2023-05-10T11:26:21;12.95;;;11.45;;
11504;SDS011;5809;53.262;10.408;2023-05-10T11:28:50;15.82;;;14.23;;
11504;SDS011;5809;53.262;10.408;2023-05-10T11:31:19;13.73;;;12.15;;
11504;SDS011;5809;53.262;10.408;2023-05-10T11:33:48;12.45;;;11.20;;
11504;SDS011;5809;53.262;10.408;2023-05-10T11:36:16;13.13;;;11.73;;
11504;SDS011;5809;53.262;10.408;2023-05-10T11:38:44;13.40;;;12.00;;
11504;SDS011;5809;53.262;10.408;2023-05-10T11:41:11;13.65;;;12.25;;
11504;SDS011;5809;53.262;10.408;2023-05-10T11:43:39;12.65;;;11.38;;
11504;SDS011;5809;53.262;10.408;2023-05-10T11:46:07;14.00;;;11.60;;
11504;SDS011;5809;53.262;10.408;2023-05-10T11:48:36;14.13;;;11.70;;
11504;SDS011;5809;53.262;10.408;2023-05-10T11:51:06;14.65;;;12.77;;
11504;SDS011;5809;53.262;10.408;2023-05-10T11:53:33;13.68;;;11.77;;
11504;SDS011;5809;53.262;10.408;2023-05-10T11:56:03;12.13;;;10.93;;
11504;SDS011;5809;53.262;10.408;2023-05-10T11:58:31;20.05;;;17.65;;
11504;SDS011;5809;53.262;10.408;2023-05-10T12:00:59;13.80;;;12.43;;
11504;SDS011;5809;53.262;10.408;2023-05-10T12:03:26;14.05;;;12.55;;
11504;SDS011;5809;53.262;10.408;2023-05-10T12:05:54;13.07;;;11.77;;
11504;SDS011;5809;53.262;10.408;2023-05-10T12:08:24;14.52;;;13.02;;
11504;SDS011;5809;53.262;10.408;2023-05-10T12:10:51;13.85;;;12.45;;
11504;SDS011;5809;53.262;10.408;2023-05-10T12:13:19;13.45;;;12.13;;
11504;SDS011;5809;53.262;10.408;2023-05-10T12:15:46;11.90;;;10.70;;
11504;SDS011;5809;53.262;10.408;2023-05-10T12:18:13;12.15;;;10.85;;
11504;SDS011;5809;53.262;10.408;2023-05-10T12:20:41;12.38;;;11.18;;
11504;SDS011;5809;53.262;10.408;2023-05-10T12:23:08;13.85;;;12.55;;
11504;SDS011;5809;53.262;10.408;2023-05-10T12:25:37;13.80;;;12.50;;
11504;SDS011;5809;53.262;10.408;2023-05-10T12:28:05;12.98;;;11.77;;
11504;SDS011;5809;53.262;10.408;2023-05-10T12:30:34;12.55;;;11.38;;
11504;SDS011;5809;53.262;10.408;2023-05-10T12:33:02;13.80;;;12.50;;
11504;SDS011;5809;53.262;10.408;2023-05-10T12:35:43;14.60;;;12.88;;
11504;SDS011;5809;53.262;10.408;2023-05-10T12:38:26;14.02;;;12.40;;
11504;SDS011;5809;53.262;10.408;2023-05-10T12:40:57;15.30;;;13.65;;
11504;SDS011;5809;53.262;10.408;2023-05-10T12:43:24;14.88;;;13.38;;
11504;SDS011;5809;53.262;10.408;2023-05-10T12:45:51;15.00;;;13.60;;
11504;SDS011;5809;53.262;10.408;2023-05-10T12:48:18;13.63;;;12.25;;
11504;SDS011;5809;53.262;10.408;2023-05-10T12:50:46;13.90;;;12.48;;
11504;SDS011;5809;53.262;10.408;2023-05-10T12:53:13;12.90;;;11.48;;
11504;SDS011;5809;53.262;10.408;2023-05-10T12:55:40;12.13;;;11.02;;
11504;SDS011;5809;53.262;10.408;2023-05-10T12:58:08;12.77;;;11.48;;
11504;SDS011;5809;53.262;10.408;2023-05-10T13:00:35;11.15;;;10.05;;
11504;SDS011;5809;53.262;10.408;2023-05-10T13:03:03;10.30;;;9.30;;
11504;SDS011;5809;53.262;10.408;2023-05-10T13:05:30;11.38;;;10.38;;
11504;SDS011;5809;53.262;10.408;2023-05-10T13:07:57;12.48;;;11.38;;
11504;SDS011;5809;53.262;10.408;2023-05-10T13:10:24;12.23;;;11.07;;
11504;SDS011;5809;53.262;10.408;2023-05-10T13:12:51;10.32;;;9.38;;
11504;SDS011;5809;53.262;10.408;2023-05-10T13:15:19;11.95;;;10.77;;
11504;SDS011;5809;53.262;10.408;2023-05-10T13:17:46;12.18;;;11.05;;
11504;SDS011;5809;53.262;10.408;2023-05-10T13:20:13;14.00;;;12.15;;
11504;SDS011;5809;53.262;10.408;2023-05-10T13:22:40;11.73;;;10.63;;
11504;SDS011;5809;53.262;10.408;2023-05-10T13:25:08;11.60;;;10.50;;
11504;SDS011;5809;53.262;10.408;2023-05-10T13:27:35;11.05;;;10.02;;
11504;SDS011;5809;53.262;10.408;2023-05-10T13:30:02;10.98;;;9.90;;
11504;SDS011;5809;53.262;10.408;2023-05-10T13:32:31;9.75;;;8.77;;
11504;SDS011;5809;53.262;10.408;2023-05-10T13:34:59;12.75;;;10.20;;
11504;SDS011;5809;53.262;10.408;2023-05-10T13:37:28;11.23;;;10.05;;
11504;SDS011;5809;53.262;10.408;2023-05-10T13:39:55;11.18;;;10.10;;
11504;SDS011;5809;53.262;10.408;2023-05-10T13:42:22;11.68;;;10.52;;
11504;SDS011;5809;53.262;10.408;2023-05-10T13:44:49;7.72;;;7.05;;
11504;SDS011;5809;53.262;10.408;2023-05-10T13:47:16;6.65;;;6.05;;
11504;SDS011;5809;53.262;10.408;2023-05-10T13:49:44;6.20;;;5.60;;
11504;SDS011;5809;53.262;10.408;2023-05-10T13:52:11;8.35;;;6.00;;
11504;SDS011;5809;53.262;10.408;2023-05-10T13:54:38;7.00;;;6.10;;
11504;SDS011;5809;53.262;10.408;2023-05-10T13:57:06;6.95;;;5.85;;
11504;SDS011;5809;53.262;10.408;2023-05-10T13:59:33;7.13;;;6.43;;
11504;SDS011;5809;53.262;10.408;2023-05-10T14:01:59;7.18;;;6.15;;
11504;SDS011;5809;53.262;10.408;2023-05-10T14:04:27;6.35;;;5.75;;
11504;SDS011;5809;53.262;10.408;2023-05-10T14:06:56;5.90;;;5.40;;
11504;SDS011;5809;53.262;10.408;2023-05-10T14:09:23;5.32;;;4.82;;
11504;SDS011;5809;53.262;10.408;2023-05-10T14:11:50;5.80;;;4.78;;
11504;SDS011;5809;53.262;10.408;2023-05-10T14:14:17;4.85;;;4.45;;
11504;SDS011;5809;53.262;10.408;2023-05-10T14:16:44;5.43;;;4.80;;
11504;SDS011;5809;53.262;10.408;2023-05-10T14:19:11;5.13;;;4.72;;
11504;SDS011;5809;53.262;10.408;2023-05-10T14:21:38;4.90;;;4.50;;
11504;SDS011;5809;53.262;10.408;2023-05-10T14:24:06;4.40;;;4.07;;
11504;SDS011;5809;53.262;10.408;2023-05-10T14:26:33;4.80;;;4.40;;
11504;SDS011;5809;53.262;10.408;2023-05-10T14:29:00;5.07;;;4.57;;
11504;SDS011;5809;53.262;10.408;2023-05-10T14:31:27;4.78;;;4.38;;
11504;SDS011;5809;53.262;10.408;2023-05-10T14:33:55;4.65;;;4.18;;
11504;SDS011;5809;53.262;10.408;2023-05-10T14:36:22;4.43;;;4.13;;
11504;SDS011;5809;53.262;10.408;2023-05-10T14:38:49;4.57;;;4.10;;
11504;SDS011;5809;53.262;10.408;2023-05-10T14:41:18;4.30;;;3.90;;
11504;SDS011;5809;53.262;10.408;2023-05-10T14:43:44;4.47;;;4.03;;
11504;SDS011;5809;53.262;10.408;2023-05-10T14:46:12;3.90;;;3.60;;
11504;SDS011;5809;53.262;10.408;2023-05-10T14:48:38;3.85;;;3.55;;
11504;SDS011;5809;53.262;10.408;2023-05-10T14:51:05;4.38;;;3.97;;
11504;SDS011;5809;53.262;10.408;2023-05-10T14:53:32;4.03;;;3.50;;
11504;SDS011;5809;53.262;10.408;2023-05-10T14:55:59;3.60;;;3.30;;